Time;durP1;ratioP1;P1;durP2;ratioP2;P2;SDS_P1;SDS_P2;PMS_P1;PMS_P2;Temp;Humidity;BMP_temperature;BMP_pressure;BME280_temperature;BME280_humidity;BME280_pressure;Samples;Min_cycle;Max_cycle;Signal;HPM_P1;HPM_P2
2023/12/12 00:00:21;;;;;;;39.50;17.88;;;;;;;4.81;99.98;99821.09;5142292;27;20038;-67
2023/12/12 00:02:46;;;;;;;48.10;19.95;;;;;;;4.87;100.00;99806.66;5142393;27;20221;-66
2023/12/12 00:05:13;;;;;;;42.92;18.73;;;;;;;4.98;99.52;99817.09;5142404;27;20088;-64
2023/12/12 00:07:39;;;;;;;44.10;19.42;;;;;;;4.94;99.50;99806.97;5142522;27;20375;-67
2023/12/12 00:10:05;;;;;;;44.08;19.60;;;;;;;5.06;99.98;99809.44;5142264;27;20038;-66
2023/12/12 00:12:31;;;;;;;41.78;19.02;;;;;;;5.20;98.97;99808.34;5142692;27;20096;-64
2023/12/12 00:14:57;;;;;;;42.50;19.85;;;;;;;5.05;99.67;99809.56;5142618;27;20035;-66
2023/12/12 00:17:22;;;;;;;61.38;25.65;;;;;;;5.12;99.44;99798.44;5141982;27;20359;-66
2023/12/12 00:19:48;;;;;;;59.90;26.85;;;;;;;5.25;98.70;99806.16;5141343;27;20145;-67
2023/12/12 00:22:13;;;;;;;60.85;27.77;;;;;;;5.26;98.64;99781.56;5141484;27;20024;-66
2023/12/12 00:24:39;;;;;;;45.45;22.00;;;;;;;5.40;97.91;99777.81;5142324;27;20039;-64
2023/12/12 00:27:05;;;;;;;49.60;23.02;;;;;;;5.37;97.67;99759.69;5142053;27;20096;-66
2023/12/12 00:29:30;;;;;;;46.35;22.75;;;;;;;5.38;98.03;99753.47;5141424;27;20031;-67
2023/12/12 00:31:56;;;;;;;51.47;21.40;;;;;;;5.21;98.78;99748.78;5140897;27;20283;-66
2023/12/12 00:34:21;;;;;;;50.30;23.00;;;;;;;5.29;99.78;99756.88;5140885;27;20137;-66
2023/12/12 00:36:47;;;;;;;56.15;24.10;;;;;;;5.33;98.50;99766.16;5141230;27;20035;-64
2023/12/12 00:39:12;;;;;;;58.85;24.85;;;;;;;5.31;98.90;99770.69;5141262;27;20102;-66
2023/12/12 00:41:38;;;;;;;56.08;26.77;;;;;;;5.34;99.57;99762.56;5141597;27;20074;-66
2023/12/12 00:44:03;;;;;;;65.05;27.33;;;;;;;5.44;100.00;99753.78;5141569;27;20049;-67
2023/12/12 00:46:29;;;;;;;63.40;25.90;;;;;;;5.43;98.75;99760.00;5140124;27;20077;-64
2023/12/12 00:48:55;;;;;;;58.60;24.77;;;;;;;5.34;99.19;99744.19;5140532;27;20039;-67
2023/12/12 00:51:20;;;;;;;68.50;26.83;;;;;;;5.09;100.00;99732.25;5140883;27;20083;-64
2023/12/12 00:53:46;;;;;;;61.05;23.10;;;;;;;4.66;100.00;99696.44;5141032;27;20043;-67
2023/12/12 00:56:11;;;;;;;53.90;22.55;;;;;;;4.47;100.00;99735.59;5141352;27;20039;-64
2023/12/12 00:58:37;;;;;;;61.88;25.25;;;;;;;4.39;100.00;99754.56;5140505;27;20038;-64
2023/12/12 01:01:02;;;;;;;64.38;24.90;;;;;;;4.30;100.00;99760.53;5140318;27;20038;-63
2023/12/12 01:03:28;;;;;;;56.08;22.17;;;;;;;4.29;100.00;99734.44;5140420;27;20027;-63
2023/12/12 01:05:53;;;;;;;64.35;22.73;;;;;;;4.38;100.00;99744.19;5140542;27;20203;-66
2023/12/12 01:08:19;;;;;;;52.88;21.23;;;;;;;4.35;100.00;99745.28;5140432;27;20043;-66
2023/12/12 01:10:44;;;;;;;55.40;21.92;;;;;;;4.30;100.00;99750.06;5140170;27;20278;-66
2023/12/12 01:13:10;;;;;;;59.08;21.73;;;;;;;4.20;100.00;99746.50;5140474;27;20043;-66
2023/12/12 01:15:35;;;;;;;54.67;20.77;;;;;;;4.40;100.00;99763.25;5140244;27;20038;-66
2023/12/12 01:18:01;;;;;;;52.17;23.27;;;;;;;4.52;100.00;99770.16;5140319;27;20257;-66
2023/12/12 01:20:27;;;;;;;59.05;22.35;;;;;;;4.64;100.00;99760.47;5140064;27;20027;-64
2023/12/12 01:22:52;;;;;;;52.80;23.50;;;;;;;4.60;100.00;99757.25;5139987;27;20047;-66
2023/12/12 01:25:18;;;;;;;49.53;21.27;;;;;;;4.57;100.00;99746.16;5139860;27;20382;-64
2023/12/12 01:27:44;;;;;;;46.42;20.75;;;;;;;4.67;100.00;99739.22;5139867;27;20036;-66
2023/12/12 01:30:10;;;;;;;48.70;19.35;;;;;;;4.65;100.00;99739.34;5139562;27;20094;-64
2023/12/12 01:32:35;;;;;;;45.08;20.05;;;;;;;4.38;100.00;99729.31;5139817;27;20043;-66
2023/12/12 01:35:01;;;;;;;47.00;21.73;;;;;;;4.21;100.00;99729.81;5139795;27;20035;-65
2023/12/12 01:37:26;;;;;;;49.15;20.95;;;;;;;4.12;100.00;99728.72;5139854;27;20035;-66
2023/12/12 01:39:52;;;;;;;48.25;21.38;;;;;;;4.17;100.00;99723.16;5139679;27;20046;-66
2023/12/12 01:42:17;;;;;;;44.90;21.65;;;;;;;4.29;100.00;99726.59;5139601;27;20039;-64
2023/12/12 01:44:43;;;;;;;48.70;22.13;;;;;;;4.37;100.00;99719.78;5139940;27;20102;-66
2023/12/12 01:47:10;;;;;;;43.40;20.48;;;;;;;4.29;100.00;99718.72;5139459;27;20071;-64
2023/12/12 01:49:36;;;;;;;46.58;21.38;;;;;;;4.34;100.00;99720.00;5139618;27;20034;-66
2023/12/12 01:52:02;;;;;;;48.47;21.77;;;;;;;3.80;100.00;99710.31;5140252;27;20085;-64
2023/12/12 01:54:29;;;;;;;55.05;23.38;;;;;;;3.72;100.00;99715.31;5140849;27;20284;-64
2023/12/12 01:56:55;;;;;;;50.75;23.08;;;;;;;4.07;100.00;99720.41;5140103;27;20043;-66
2023/12/12 01:59:22;;;;;;;54.13;23.27;;;;;;;4.35;100.00;99720.84;5139659;27;20221;-66
2023/12/12 02:01:52;;;;;;;47.40;22.02;;;;;;;4.40;100.00;99722.16;5139644;27;20067;-64
2023/12/12 02:04:18;;;;;;;46.30;22.63;;;;;;;4.65;100.00;99713.13;5139875;27;20417;-64
2023/12/12 02:06:44;;;;;;;47.03;22.35;;;;;;;4.88;100.00;99720.91;5139475;27;20144;-64
2023/12/12 02:09:11;;;;;;;47.22;21.45;;;;;;;4.82;100.00;99707.31;5139081;27;20038;-67
2023/12/12 02:11:36;;;;;;;54.63;24.05;;;;;;;4.43;100.00;99710.56;5139217;27;20112;-64
2023/12/12 02:14:02;;;;;;;49.50;20.88;;;;;;;4.50;100.00;99701.25;5139845;27;20041;-64
2023/12/12 02:16:28;;;;;;;44.38;20.23;;;;;;;4.11;100.00;99715.75;5138325;27;20043;-64
2023/12/12 02:18:53;;;;;;;47.00;20.83;;;;;;;3.58;100.00;99712.09;5139136;27;20376;-64
2023/12/12 02:21:22;;;;;;;50.78;20.92;;;;;;;3.41;100.00;99708.97;5139213;27;20376;-64
2023/12/12 02:23:47;;;;;;;44.75;20.08;;;;;;;3.16;100.00;99699.56;5139186;27;20260;-64
2023/12/12 02:26:13;;;;;;;47.90;20.70;;;;;;;3.04;100.00;99702.22;5138367;27;20039;-65
2023/12/12 02:28:42;;;;;;;55.72;21.88;;;;;;;2.92;100.00;99700.53;5138776;27;20027;-66
2023/12/12 02:31:09;;;;;;;50.40;21.77;;;;;;;2.75;100.00;99693.94;5138890;27;20043;-64
2023/12/12 02:33:34;;;;;;;56.13;24.95;;;;;;;2.70;100.00;99683.81;5138756;27;20311;-66
2023/12/12 02:36:00;;;;;;;54.33;24.40;;;;;;;2.36;100.00;99668.97;5139726;27;20035;-66
2023/12/12 02:38:25;;;;;;;60.15;23.58;;;;;;;2.22;100.00;99677.78;5139277;27;20035;-64
2023/12/12 02:40:51;;;;;;;57.75;21.02;;;;;;;1.91;100.00;99666.06;5139861;27;20327;-65
2023/12/12 02:43:16;;;;;;;45.40;18.52;;;;;;;1.79;100.00;99656.50;5139540;27;20035;-64
2023/12/12 02:45:42;;;;;;;47.15;20.10;;;;;;;1.64;100.00;99647.97;5139550;27;20038;-63
2023/12/12 02:48:07;;;;;;;43.50;18.48;;;;;;;1.68;100.00;99648.59;5139747;27;20035;-66
2023/12/12 02:50:33;;;;;;;52.90;20.50;;;;;;;1.87;100.00;99655.00;5139844;27;20031;-64
2023/12/12 02:52:58;;;;;;;60.08;22.42;;;;;;;1.87;100.00;99669.84;5139781;27;20046;-64
2023/12/12 02:55:24;;;;;;;54.60;21.45;;;;;;;1.93;100.00;99657.19;5139131;28;20412;-64
2023/12/12 02:57:49;;;;;;;58.30;21.83;;;;;;;2.06;100.00;99671.97;5138627;28;20039;-64
2023/12/12 03:00:15;;;;;;;64.88;24.45;;;;;;;2.45;100.00;99686.56;5138540;28;20046;-66
2023/12/12 03:02:40;;;;;;;52.42;23.20;;;;;;;2.87;100.00;99696.47;5138653;28;20081;-66
2023/12/12 03:05:06;;;;;;;53.88;19.55;;;;;;;3.15;100.00;99690.03;5137976;28;20035;-66
2023/12/12 03:07:32;;;;;;;56.33;21.48;;;;;;;3.35;100.00;99688.50;5138798;28;20039;-64
2023/12/12 03:09:57;;;;;;;50.40;18.15;;;;;;;3.44;100.00;99700.91;5138619;28;20405;-64
2023/12/12 03:12:23;;;;;;;47.33;21.10;;;;;;;3.54;100.00;99714.09;5138438;28;20058;-64
2023/12/12 03:14:49;;;;;;;40.75;19.55;;;;;;;3.81;100.00;99721.63;5138595;28;20038;-66
2023/12/12 03:17:15;;;;;;;46.83;18.13;;;;;;;3.83;100.00;99722.31;5138708;28;20107;-64
2023/12/12 03:19:40;;;;;;;41.88;18.83;;;;;;;4.05;100.00;99722.31;5139021;28;20039;-65
2023/12/12 03:22:06;;;;;;;45.33;19.35;;;;;;;4.29;100.00;99729.19;5139528;28;20043;-66
2023/12/12 03:24:32;;;;;;;42.50;19.55;;;;;;;4.44;100.00;99718.31;5139610;28;20434;-64
2023/12/12 03:26:58;;;;;;;51.15;18.27;;;;;;;4.58;100.00;99704.09;5139814;27;20233;-64
2023/12/12 03:29:24;;;;;;;47.50;19.60;;;;;;;4.68;100.00;99698.94;5143633;27;20228;-66
2023/12/12 03:31:49;;;;;;;48.10;20.38;;;;;;;4.82;100.00;99719.63;5142891;27;20043;-64
2023/12/12 03:34:15;;;;;;;45.80;21.15;;;;;;;4.91;100.00;99716.22;5143356;27;20039;-67
2023/12/12 03:36:44;;;;;;;52.53;22.23;;;;;;;5.04;100.00;99723.91;5143427;27;20070;-64
2023/12/12 03:39:10;;;;;;;43.92;17.73;;;;;;;5.04;100.00;99716.88;5142989;27;20110;-65
2023/12/12 03:41:36;;;;;;;47.63;21.30;;;;;;;5.04;100.00;99706.38;5142443;27;20084;-65
2023/12/12 03:44:01;;;;;;;53.63;22.40;;;;;;;5.23;100.00;99737.22;5142100;27;20251;-64
2023/12/12 03:46:27;;;;;;;50.05;20.95;;;;;;;5.20;100.00;99753.22;5141857;27;20453;-65
2023/12/12 03:48:52;;;;;;;44.22;22.52;;;;;;;5.19;100.00;99743.63;5142265;27;20271;-67
2023/12/12 03:51:18;;;;;;;49.50;21.13;;;;;;;5.16;100.00;99740.44;5143013;27;20047;-64
2023/12/12 03:53:43;;;;;;;50.45;20.45;;;;;;;5.18;100.00;99730.66;5143082;27;20686;-66
2023/12/12 03:56:09;;;;;;;45.47;21.15;;;;;;;5.23;100.00;99726.69;5142612;27;20046;-65
2023/12/12 03:58:35;;;;;;;49.15;20.85;;;;;;;5.24;100.00;99738.03;5142521;27;20058;-64
2023/12/12 04:01:00;;;;;;;57.15;23.40;;;;;;;5.30;100.00;99740.97;5142592;27;20046;-64
2023/12/12 04:03:26;;;;;;;45.47;21.13;;;;;;;5.42;100.00;99745.19;5143106;27;20217;-66
2023/12/12 04:05:51;;;;;;;54.33;22.10;;;;;;;5.46;100.00;99745.78;5143174;27;20194;-66
2023/12/12 04:08:17;;;;;;;55.65;23.30;;;;;;;5.28;100.00;99728.94;5142911;27;20047;-66
2023/12/12 04:10:43;;;;;;;50.72;22.83;;;;;;;5.19;100.00;99717.38;5141738;27;20039;-64
2023/12/12 04:13:09;;;;;;;51.30;23.38;;;;;;;5.23;100.00;99712.75;5141746;27;20059;-65
2023/12/12 04:15:34;;;;;;;45.10;19.58;;;;;;;5.21;100.00;99712.03;5141938;27;20079;-64
2023/12/12 04:18:00;;;;;;;50.80;20.63;;;;;;;5.39;100.00;99728.88;5141435;27;20085;-64
2023/12/12 04:20:25;;;;;;;48.38;21.70;;;;;;;5.45;100.00;99710.81;5141643;27;20070;-64
2023/12/12 04:22:51;;;;;;;54.03;22.67;;;;;;;5.57;100.00;99700.22;5141240;27;20433;-66
2023/12/12 04:25:16;;;;;;;45.75;20.30;;;;;;;5.58;100.00;99694.84;5141140;27;20042;-64
2023/12/12 04:27:42;;;;;;;51.42;22.20;;;;;;;5.56;100.00;99693.28;5141114;27;20035;-64
2023/12/12 04:30:08;;;;;;;45.50;21.70;;;;;;;5.60;100.00;99711.28;5140428;27;20039;-64
2023/12/12 04:32:33;;;;;;;52.05;21.55;;;;;;;5.43;100.00;99719.78;5140970;27;20047;-66
2023/12/12 04:35:00;;;;;;;58.80;22.05;;;;;;;5.30;100.00;99714.72;5140996;27;20035;-66
2023/12/12 04:37:26;;;;;;;52.97;23.60;;;;;;;5.33;100.00;99706.59;5140895;27;20034;-65
2023/12/12 04:39:51;;;;;;;51.42;23.20;;;;;;;5.42;100.00;99710.22;5140485;27;20038;-65
2023/12/12 04:42:17;;;;;;;55.80;26.45;;;;;;;5.49;100.00;99721.88;5142068;27;20084;-64
2023/12/12 04:44:43;;;;;;;58.63;25.45;;;;;;;5.21;100.00;99723.38;5141420;27;20035;-66
2023/12/12 04:47:09;;;;;;;52.15;24.02;;;;;;;5.33;100.00;99717.09;5141167;27;20043;-67
2023/12/12 04:49:35;;;;;;;60.40;25.33;;;;;;;5.42;100.00;99721.56;5141390;27;20031;-66
2023/12/12 04:52:01;;;;;;;52.25;23.23;;;;;;;5.11;100.00;99730.31;5142182;27;20409;-66
2023/12/12 04:54:27;;;;;;;56.22;24.70;;;;;;;5.21;100.00;99738.28;5141626;27;20039;-66
2023/12/12 04:56:52;;;;;;;56.80;27.25;;;;;;;5.27;100.00;99732.53;5141680;27;20035;-66
2023/12/12 04:59:18;;;;;;;55.85;24.73;;;;;;;5.32;100.00;99735.59;5141072;27;20049;-64
2023/12/12 05:01:43;;;;;;;49.92;24.58;;;;;;;5.19;100.00;99742.81;5140029;27;20042;-66
2023/12/12 05:04:09;;;;;;;47.70;23.17;;;;;;;5.00;100.00;99746.97;5139882;27;20072;-66
2023/12/12 05:06:34;;;;;;;48.53;21.23;;;;;;;4.94;100.00;99739.59;5139513;27;20111;-66
2023/12/12 05:09:00;;;;;;;50.65;22.10;;;;;;;4.97;100.00;99749.00;5139559;27;20039;-65
2023/12/12 05:11:25;;;;;;;49.28;20.38;;;;;;;4.89;100.00;99748.78;5139141;27;20115;-65
2023/12/12 05:13:51;;;;;;;57.15;24.50;;;;;;;4.76;100.00;99743.72;5139416;27;20229;-65
2023/12/12 05:16:16;;;;;;;56.28;24.17;;;;;;;4.65;100.00;99739.34;5139050;27;20031;-67
2023/12/12 05:18:42;;;;;;;51.92;24.73;;;;;;;4.66;100.00;99740.19;5139039;27;20038;-66
2023/12/12 05:21:07;;;;;;;52.17;23.05;;;;;;;4.67;100.00;99728.72;5138161;27;20073;-64
2023/12/12 05:23:32;;;;;;;54.95;24.00;;;;;;;4.61;100.00;99731.84;5138432;27;20035;-65
2023/12/12 05:25:58;;;;;;;52.75;24.15;;;;;;;4.51;100.00;99730.94;5138545;27;20076;-64
2023/12/12 05:28:23;;;;;;;52.10;24.08;;;;;;;4.52;100.00;99737.84;5138176;27;20043;-66
2023/12/12 05:30:49;;;;;;;48.75;22.70;;;;;;;4.64;100.00;99749.97;5137815;27;20050;-64
2023/12/12 05:33:14;;;;;;;63.50;24.70;;;;;;;4.79;100.00;99743.47;5138737;27;20271;-66
2023/12/12 05:35:40;;;;;;;49.35;23.45;;;;;;;4.91;100.00;99752.97;5158915;27;20037;-64
2023/12/12 05:38:06;;;;;;;58.92;26.85;;;;;;;4.98;100.00;99759.38;5158798;27;20240;-66
2023/12/12 05:40:32;;;;;;;51.80;21.92;;;;;;;4.91;100.00;99752.13;5158347;27;20030;-64
2023/12/12 05:42:58;;;;;;;54.33;23.10;;;;;;;4.80;100.00;99738.09;5159122;27;20042;-65
2023/12/12 05:45:24;;;;;;;70.70;24.90;;;;;;;4.53;100.00;99735.09;5159493;27;20030;-66
2023/12/12 05:47:49;;;;;;;61.22;22.60;;;;;;;4.42;100.00;99735.97;5158874;27;20360;-67
2023/12/12 05:50:15;;;;;;;70.88;23.38;;;;;;;4.03;100.00;99739.09;5158196;27;20236;-64
2023/12/12 05:52:40;;;;;;;75.97;25.13;;;;;;;4.21;100.00;99753.41;5158600;27;20262;-67
2023/12/12 05:55:06;;;;;;;65.15;23.98;;;;;;;4.21;100.00;99749.94;5158751;27;20039;-64
2023/12/12 05:57:32;;;;;;;83.07;24.98;;;;;;;4.24;100.00;99755.78;5158730;27;20368;-64
2023/12/12 05:59:59;;;;;;;64.43;22.88;;;;;;;4.20;100.00;99748.28;5159081;27;20035;-66
2023/12/12 06:02:24;;;;;;;68.93;20.55;;;;;;;3.76;100.00;99758.63;5158650;27;20039;-66
2023/12/12 06:04:50;;;;;;;62.85;21.98;;;;;;;3.90;100.00;99767.22;5159085;27;20037;-66
2023/12/12 06:07:16;;;;;;;81.00;23.10;;;;;;;4.10;100.00;99761.25;5159259;27;20026;-64
2023/12/12 06:09:41;;;;;;;55.45;22.30;;;;;;;4.25;100.00;99769.72;5158732;27;20055;-63
2023/12/12 06:12:07;;;;;;;60.67;21.48;;;;;;;4.31;100.00;99766.63;5158969;27;20103;-67
2023/12/12 06:14:33;;;;;;;75.57;23.63;;;;;;;4.21;100.00;99774.38;5158310;27;20097;-66
2023/12/12 06:16:58;;;;;;;66.85;22.33;;;;;;;4.30;100.00;99771.03;5157885;27;20038;-66
2023/12/12 06:19:24;;;;;;;66.97;21.13;;;;;;;4.53;100.00;99782.31;5158411;27;20027;-64
2023/12/12 06:21:53;;;;;;;58.25;21.35;;;;;;;4.54;100.00;99772.66;5157942;27;20041;-66
2023/12/12 06:24:19;;;;;;;85.43;22.90;;;;;;;4.36;100.00;99774.94;5158379;27;20030;-67
2023/12/12 06:26:46;;;;;;;76.07;22.25;;;;;;;4.41;100.00;99770.16;5158208;27;20039;-64
2023/12/12 06:29:12;;;;;;;67.03;24.02;;;;;;;4.55;100.00;99783.00;5159184;27;20050;-66
2023/12/12 06:31:39;;;;;;;56.65;22.48;;;;;;;4.73;100.00;99773.66;5158499;27;20156;-67
2023/12/12 06:34:04;;;;;;;82.25;21.17;;;;;;;4.87;100.00;99775.16;5158079;27;20029;-66
2023/12/12 06:36:30;;;;;;;83.35;24.10;;;;;;;4.90;100.00;99764.41;5158508;27;20034;-66
2023/12/12 06:38:55;;;;;;;69.90;22.65;;;;;;;4.83;100.00;99771.13;5158704;27;20053;-64
2023/12/12 06:41:21;;;;;;;90.90;25.60;;;;;;;4.75;100.00;99774.38;5158523;27;20042;-66
2023/12/12 06:43:46;;;;;;;51.42;23.73;;;;;;;4.79;100.00;99767.09;5158448;27;20035;-67
2023/12/12 06:46:12;;;;;;;68.03;23.60;;;;;;;4.95;100.00;99766.66;5158223;27;20035;-66
2023/12/12 06:48:38;;;;;;;58.05;26.05;;;;;;;4.92;100.00;99772.16;5158494;27;20027;-67
2023/12/12 06:51:05;;;;;;;65.40;23.65;;;;;;;4.81;100.00;99781.75;5158217;27;20109;-66
2023/12/12 06:53:30;;;;;;;57.83;22.15;;;;;;;4.79;100.00;99782.81;5158322;27;20098;-64
2023/12/12 06:55:55;;;;;;;58.83;21.83;;;;;;;4.85;100.00;99784.13;5158291;27;20031;-64
2023/12/12 06:58:22;;;;;;;47.88;20.80;;;;;;;4.95;100.00;99775.38;5158152;27;20042;-64
2023/12/12 07:00:48;;;;;;;64.30;22.75;;;;;;;4.60;100.00;99772.16;5158555;27;20198;-64
2023/12/12 07:03:13;;;;;;;51.30;22.52;;;;;;;4.26;100.00;99781.88;5161387;27;20083;-66
2023/12/12 07:05:39;;;;;;;51.33;19.70;;;;;;;3.73;100.00;99774.59;5140843;27;20027;-66
2023/12/12 07:08:05;;;;;;;68.75;26.77;;;;;;;3.63;100.00;99786.72;5141314;27;20039;-66
2023/12/12 07:10:31;;;;;;;62.85;25.65;;;;;;;3.45;100.00;99793.34;5142019;27;20041;-64
2023/12/12 07:13:00;;;;;;;61.50;22.42;;;;;;;3.73;100.00;99787.69;5141923;27;20039;-65
2023/12/12 07:15:27;;;;;;;57.40;23.17;;;;;;;4.05;100.00;99803.53;5141449;27;20059;-64
2023/12/12 07:17:53;;;;;;;59.42;23.55;;;;;;;4.31;100.00;99800.69;5140955;27;20039;-64
2023/12/12 07:20:19;;;;;;;47.83;18.80;;;;;;;4.41;100.00;99812.13;5140787;27;20027;-66
2023/12/12 07:22:44;;;;;;;46.65;18.50;;;;;;;4.37;100.00;99808.06;5140655;27;20339;-64
2023/12/12 07:25:10;;;;;;;48.30;19.55;;;;;;;4.31;100.00;99817.25;5138952;27;20317;-64
2023/12/12 07:27:36;;;;;;;52.78;19.48;;;;;;;4.13;100.00;99814.25;5140452;27;20567;-64
2023/12/12 07:30:02;;;;;;;41.33;16.98;;;;;;;4.09;100.00;99827.72;5140305;27;20035;-66
2023/12/12 07:32:27;;;;;;;51.03;21.08;;;;;;;4.03;100.00;99820.31;5140392;27;20047;-64
2023/12/12 07:34:53;;;;;;;46.55;20.65;;;;;;;4.02;100.00;99832.59;5140591;27;20034;-64
2023/12/12 07:37:19;;;;;;;50.55;19.38;;;;;;;4.11;100.00;99833.66;5140631;27;20042;-64
2023/12/12 07:39:44;;;;;;;55.00;24.30;;;;;;;4.10;100.00;99835.44;5140445;27;20039;-64
2023/12/12 07:42:10;;;;;;;64.07;29.63;;;;;;;4.01;100.00;99830.91;5140405;27;20035;-64
2023/12/12 07:44:35;;;;;;;66.97;26.00;;;;;;;4.10;100.00;99837.25;5140265;27;20961;-64
2023/12/12 07:47:01;;;;;;;53.78;21.85;;;;;;;4.13;100.00;99829.13;5139859;27;20046;-66
2023/12/12 07:49:28;;;;;;;52.28;21.27;;;;;;;4.36;100.00;99820.34;5140545;27;20072;-64
2023/12/12 07:51:53;;;;;;;52.03;21.77;;;;;;;4.48;100.00;99816.75;5139220;27;20047;-66
2023/12/12 07:54:20;;;;;;;67.38;22.25;;;;;;;4.66;100.00;99824.09;5140334;27;20041;-66
2023/12/12 07:56:45;;;;;;;53.25;22.75;;;;;;;4.82;100.00;99821.94;5140545;27;20039;-66
2023/12/12 07:59:11;;;;;;;50.42;21.50;;;;;;;5.02;100.00;99825.56;5140053;27;20064;-67
2023/12/12 08:01:37;;;;;;;59.47;22.65;;;;;;;5.06;100.00;99819.94;5140388;27;20100;-66
2023/12/12 08:04:04;;;;;;;57.10;22.25;;;;;;;5.35;100.00;99838.56;5122353;27;20035;-64
2023/12/12 08:06:30;;;;;;;50.47;21.55;;;;;;;5.50;100.00;99840.91;5140616;27;20034;-66
2023/12/12 08:08:56;;;;;;;55.17;24.40;;;;;;;5.53;100.00;99830.97;5140541;27;20031;-66
2023/12/12 08:11:24;;;;;;;50.72;24.08;;;;;;;5.67;100.00;99838.53;5140643;27;20042;-64
2023/12/12 08:13:50;;;;;;;56.63;22.35;;;;;;;5.79;100.00;99841.91;5140634;27;20269;-64
2023/12/12 08:16:15;;;;;;;54.47;22.38;;;;;;;5.98;100.00;99834.16;5139981;27;20042;-65
2023/12/12 08:18:41;;;;;;;51.70;21.05;;;;;;;6.16;100.00;99825.69;5139583;27;20050;-62
2023/12/12 08:21:08;;;;;;;51.28;21.42;;;;;;;6.11;100.00;99831.31;5140249;27;20087;-63
2023/12/12 08:23:36;;;;;;;51.95;22.65;;;;;;;6.30;100.00;99839.31;5140606;27;20038;-65
2023/12/12 08:26:02;;;;;;;50.30;23.88;;;;;;;6.42;100.00;99832.19;5139960;27;20058;-65
2023/12/12 08:28:27;;;;;;;55.00;22.27;;;;;;;6.50;100.00;99823.63;5140403;27;20031;-61
2023/12/12 08:30:53;;;;;;;63.47;26.67;;;;;;;6.61;100.00;99820.88;5139889;27;20035;-64
2023/12/12 08:33:20;;;;;;;52.90;24.20;;;;;;;6.76;100.00;99824.78;5139590;27;20043;-64
2023/12/12 08:35:45;;;;;;;58.40;25.38;;;;;;;6.77;100.00;99818.56;5139373;27;20318;-62
2023/12/12 08:38:11;;;;;;;57.50;24.95;;;;;;;6.86;100.00;99815.09;5139469;27;20039;-62
2023/12/12 08:40:37;;;;;;;68.25;29.73;;;;;;;6.88;100.00;99807.91;5140207;27;20035;-64
2023/12/12 08:43:02;;;;;;;64.70;25.45;;;;;;;6.99;100.00;99812.22;5140118;27;20047;-62
2023/12/12 08:45:29;;;;;;;67.55;28.95;;;;;;;6.87;100.00;99803.59;5139695;27;20026;-64
2023/12/12 08:47:54;;;;;;;59.22;25.08;;;;;;;6.99;100.00;99810.41;5139103;27;20085;-64
2023/12/12 08:50:20;;;;;;;59.90;25.02;;;;;;;6.97;100.00;99811.50;5138595;27;20039;-62
2023/12/12 08:52:46;;;;;;;57.90;24.52;;;;;;;7.07;100.00;99806.25;5138948;27;20699;-62
2023/12/12 08:55:11;;;;;;;55.97;26.10;;;;;;;7.17;100.00;99801.81;5138986;27;20027;-64
2023/12/12 08:57:37;;;;;;;60.03;26.88;;;;;;;7.22;100.00;99805.69;5139116;27;20059;-64
2023/12/12 09:00:03;;;;;;;66.60;27.48;;;;;;;7.23;100.00;99794.19;5139219;27;20045;-62
2023/12/12 09:02:29;;;;;;;55.33;26.02;;;;;;;7.37;100.00;99787.69;5139301;27;20035;-62
2023/12/12 09:04:55;;;;;;;58.47;25.67;;;;;;;7.55;100.00;99790.44;5139567;27;20076;-62
2023/12/12 09:07:20;;;;;;;58.30;24.95;;;;;;;7.59;100.00;99787.38;5139942;27;20370;-62
2023/12/12 09:09:46;;;;;;;58.60;26.52;;;;;;;7.64;100.00;99795.69;5139422;27;20309;-62
2023/12/12 09:12:11;;;;;;;52.97;24.08;;;;;;;7.72;100.00;99794.97;5139286;27;20043;-64
2023/12/12 09:14:36;;;;;;;56.05;25.38;;;;;;;7.78;100.00;99801.50;5138700;27;20035;-64
2023/12/12 09:17:02;;;;;;;57.30;26.67;;;;;;;7.66;100.00;99795.56;5138712;27;20347;-62
2023/12/12 09:19:27;;;;;;;57.03;26.25;;;;;;;7.79;100.00;99795.25;5138467;27;20393;-64
2023/12/12 09:21:54;;;;;;;60.60;28.13;;;;;;;7.79;100.00;99789.97;5138730;27;20039;-64
2023/12/12 09:24:20;;;;;;;59.17;26.60;;;;;;;7.55;100.00;99772.81;5137891;27;20086;-64
2023/12/12 09:26:46;;;;;;;59.60;26.90;;;;;;;7.76;100.00;99783.19;5138091;27;20348;-64
2023/12/12 09:29:12;;;;;;;54.60;25.73;;;;;;;7.65;100.00;99775.44;5138286;27;20027;-63
2023/12/12 09:31:37;;;;;;;63.80;28.10;;;;;;;7.46;100.00;99781.59;5138558;27;20051;-64
2023/12/12 09:34:03;;;;;;;57.60;27.35;;;;;;;7.25;100.00;99773.81;5138270;27;20446;-64
2023/12/12 09:36:29;;;;;;;60.47;27.02;;;;;;;7.48;100.00;99773.53;5138164;27;20041;-62
2023/12/12 09:38:54;;;;;;;62.17;27.77;;;;;;;7.19;100.00;99763.84;5138576;27;20224;-63
2023/12/12 09:41:24;;;;;;;62.53;27.45;;;;;;;6.89;100.00;99754.28;5137983;27;20039;-63
2023/12/12 09:43:51;;;;;;;69.18;27.05;;;;;;;7.04;100.00;99745.00;5138837;27;20026;-65
2023/12/12 09:46:17;;;;;;;69.45;30.85;;;;;;;7.02;100.00;99746.13;5138073;27;20031;-62
2023/12/12 09:48:48;;;;;;;66.28;29.75;;;;;;;7.12;100.00;99746.09;5137806;27;20219;-62
2023/12/12 09:51:14;;;;;;;66.15;27.88;;;;;;;7.29;100.00;99748.88;5137550;27;20041;-62
2023/12/12 09:53:47;;;;;;;66.72;27.48;;;;;;;7.50;100.00;99745.25;5137799;27;20094;-62
2023/12/12 09:56:17;;;;;;;61.08;28.52;;;;;;;7.62;100.00;99742.31;5137691;27;20241;-62
2023/12/12 09:58:48;;;;;;;62.35;25.83;;;;;;;7.80;100.00;99747.66;5137805;27;20062;-62
2023/12/12 10:01:14;;;;;;;53.92;24.98;;;;;;;7.81;100.00;99743.22;5137796;27;20034;-67
2023/12/12 10:03:40;;;;;;;55.97;26.02;;;;;;;7.97;100.00;99746.88;5138049;27;20042;-64
2023/12/12 10:06:08;;;;;;;60.67;27.10;;;;;;;8.13;100.00;99741.00;5138111;27;20027;-66
2023/12/12 10:08:38;;;;;;;57.35;27.02;;;;;;;8.21;100.00;99741.09;5138434;27;20038;-66
2023/12/12 10:11:09;;;;;;;59.03;26.95;;;;;;;8.19;100.00;99740.41;5138404;27;20047;-64
2023/12/12 10:13:50;;;;;;;62.65;26.17;;;;;;;8.29;100.00;99740.34;5138215;27;20360;-62
2023/12/12 10:16:17;;;;;;;57.63;26.48;;;;;;;8.16;100.00;99743.34;5138295;27;20046;-64
2023/12/12 10:18:44;;;;;;;52.40;25.30;;;;;;;8.30;100.00;99748.13;5137506;27;20035;-63
2023/12/12 10:21:18;;;;;;;62.22;27.50;;;;;;;8.37;100.00;99750.22;5137684;27;20268;-64
2023/12/12 10:23:48;;;;;;;58.60;27.17;;;;;;;8.46;100.00;99741.41;5137317;27;20385;-62
2023/12/12 10:26:14;;;;;;;59.08;26.52;;;;;;;8.54;100.00;99739.69;5137916;27;20058;-63
2023/12/12 10:28:41;;;;;;;59.78;27.25;;;;;;;8.59;100.00;99732.16;5138069;27;20031;-64
2023/12/12 10:31:08;;;;;;;58.03;27.27;;;;;;;8.63;100.00;99735.34;5137769;27;20244;-64
2023/12/12 10:33:34;;;;;;;63.38;27.08;;;;;;;8.57;100.00;99735.94;5152332;27;20091;-64
2023/12/12 10:36:03;;;;;;;60.05;26.20;;;;;;;8.63;100.00;99730.88;5157496;27;20098;-67
2023/12/12 10:38:30;;;;;;;64.55;27.35;;;;;;;8.64;100.00;99737.81;5157870;27;20031;-65
2023/12/12 10:41:19;;;;;;;61.22;27.80;;;;;;;8.55;100.00;99733.44;5158344;27;20061;-66
2023/12/12 10:43:46;;;;;;;61.40;28.23;;;;;;;8.54;100.00;99723.88;5158960;27;20224;-64
2023/12/12 10:46:16;;;;;;;66.25;28.70;;;;;;;8.59;100.00;99726.88;5158453;27;20078;-67
2023/12/12 10:48:43;;;;;;;60.08;29.13;;;;;;;8.64;100.00;99716.72;5157895;27;20049;-67
2023/12/12 10:51:10;;;;;;;57.85;27.92;;;;;;;8.60;100.00;99715.34;5144039;27;20076;-67
2023/12/12 10:53:37;;;;;;;60.58;28.95;;;;;;;8.64;100.00;99715.88;5136690;27;20035;-64
2023/12/12 10:56:04;;;;;;;58.25;28.05;;;;;;;8.66;100.00;99716.56;5136538;27;20107;-67
2023/12/12 10:58:31;;;;;;;51.38;27.00;;;;;;;8.75;100.00;99713.00;5137079;27;20035;-64
2023/12/12 11:00:58;;;;;;;57.17;26.85;;;;;;;8.82;100.00;99722.00;5137707;27;20039;-67
2023/12/12 11:03:24;;;;;;;57.72;26.73;;;;;;;8.87;100.00;99716.25;5137601;27;20054;-65
2023/12/12 11:05:50;;;;;;;55.25;26.60;;;;;;;8.90;100.00;99721.22;5136650;27;20031;-64
2023/12/12 11:08:17;;;;;;;56.13;25.83;;;;;;;8.98;100.00;99723.13;5137241;27;20074;-64
2023/12/12 11:10:43;;;;;;;58.33;26.38;;;;;;;9.01;100.00;99718.34;5136049;27;20023;-67